Time;durP1;ratioP1;P1;durP2;ratioP2;P2;SDS_P1;SDS_P2;PMS_P1;PMS_P2;Temp;Humidity;BMP_temperature;BMP_pressure;BME280_temperature;BME280_humidity;BME280_pressure;Samples;Min_cycle;Max_cycle;Signal;HPM_P1;HPM_P2
2023/10/04 00:01:16;;;;;;;12.43;4.47;;;12.00;99.90;;;11.99;100.00;101235.44;5021324;28;20482;-90
2023/10/04 00:03:46;;;;;;;10.27;4.32;;;12.00;99.90;;;11.86;100.00;101227.28;5024794;28;20112;-86
2023/10/04 00:06:12;;;;;;;12.57;4.70;;;11.90;99.90;;;11.78;100.00;101231.88;5025896;28;20049;-92
2023/10/04 00:08:41;;;;;;;11.18;4.95;;;11.90;99.90;;;11.84;100.00;101219.28;5021946;28;20026;-87
2023/10/04 00:11:14;;;;;;;13.77;5.25;;;11.90;99.90;;;11.86;100.00;101208.13;5029758;28;20125;-90
2023/10/04 00:13:44;;;;;;;16.55;5.53;;;11.90;99.90;;;11.82;100.00;101194.03;5031660;28;20040;-89
2023/10/04 00:16:13;;;;;;;13.38;5.57;;;11.90;99.90;;;11.67;100.00;101186.06;5030851;28;20044;-87
2023/10/04 00:18:38;;;;;;;13.68;5.00;;;11.90;99.90;;;11.76;100.00;101200.34;5024669;28;20056;-88
2023/10/04 00:21:10;;;;;;;10.55;5.00;;;11.80;99.90;;;11.66;100.00;101185.22;5022972;28;20125;-87
2023/10/04 00:23:40;;;;;;;14.82;5.40;;;11.90;99.90;;;11.70;100.00;101188.38;5006141;28;20050;-90
2023/10/04 00:26:07;;;;;;;14.27;5.78;;;11.90;99.90;;;11.86;100.00;101197.19;5033659;28;20118;-87
2023/10/04 00:28:38;;;;;;;10.98;5.53;;;12.00;99.90;;;11.88;100.00;101215.06;5023169;28;20038;-90
2023/10/04 00:31:05;;;;;;;10.13;5.60;;;12.00;99.90;;;11.93;100.00;101218.03;5026242;28;20405;-89
2023/10/04 00:33:31;;;;;;;14.00;5.40;;;12.00;99.90;;;11.98;100.00;101232.94;5020643;28;20041;-86
2023/10/04 00:36:04;;;;;;;11.05;4.93;;;12.00;99.90;;;11.94;100.00;101229.78;5011241;28;20036;-89
2023/10/04 00:38:33;;;;;;;11.18;5.53;;;12.10;99.90;;;12.01;100.00;101257.16;5019943;28;20042;-91
2023/10/04 00:41:00;;;;;;;10.68;5.22;;;12.10;99.90;;;12.10;100.00;101258.63;5029510;28;20030;-88
2023/10/04 00:43:26;;;;;;;14.43;5.63;;;12.10;99.90;;;11.91;100.00;101263.84;5014461;28;20049;-89
2023/10/04 00:45:53;;;;;;;12.52;5.03;;;12.10;99.90;;;11.91;100.00;101258.38;5021136;28;20034;-89
2023/10/04 00:48:34;;;;;;;15.30;5.30;;;12.10;99.90;;;11.91;100.00;101261.09;5023257;28;20036;-89
2023/10/04 00:51:00;;;;;;;9.57;4.65;;;12.10;99.90;;;11.81;100.00;101247.03;5025592;28;20056;-88
2023/10/04 00:53:29;;;;;;;10.77;5.00;;;12.00;99.90;;;11.80;100.00;101239.88;5032985;28;20033;-91
2023/10/04 00:55:57;;;;;;;10.32;5.30;;;12.00;99.90;;;11.70;100.00;101234.00;5043308;28;20061;-88
2023/10/04 00:58:25;;;;;;;11.57;5.25;;;12.00;99.90;;;11.79;100.00;101243.66;5046150;28;20382;-88
2023/10/04 01:00:51;;;;;;;11.95;5.00;;;12.00;99.90;;;11.69;100.00;101232.34;5035172;28;20028;-88
2023/10/04 01:03:24;;;;;;;10.38;5.00;;;12.00;99.90;;;11.76;100.00;101244.09;5046908;28;20049;-91
2023/10/04 01:05:51;;;;;;;12.30;4.97;;;12.00;99.90;;;11.73;100.00;101236.31;5031518;28;20053;-89
2023/10/04 01:08:23;;;;;;;10.77;4.85;;;11.90;99.90;;;11.81;100.00;101247.03;5053443;28;20037;-88
2023/10/04 01:10:51;;;;;;;10.98;5.00;;;12.00;99.90;;;11.82;100.00;101248.72;5021266;28;20096;-89
2023/10/04 01:13:21;;;;;;;;;;;12.00;99.90;;;11.80;100.00;101248.94;5031022;28;20068;-87
2023/10/04 01:15:59;;;;;;;10.52;4.55;;;12.00;99.90;;;11.83;100.00;101258.59;5031507;28;20391;-89
2023/10/04 01:18:28;;;;;;;13.00;4.75;;;12.10;99.90;;;11.93;100.00;101259.03;5030763;28;20125;-89
2023/10/04 01:20:55;;;;;;;8.02;3.53;;;12.10;99.90;;;11.95;100.00;101275.22;5023115;28;20065;-87
2023/10/04 01:23:23;;;;;;;11.82;4.57;;;12.20;99.90;;;11.99;100.00;101276.47;5034407;28;20097;-86
2023/10/04 01:25:49;;;;;;;8.02;3.78;;;12.20;99.90;;;11.93;100.00;101272.72;5016076;28;20033;-90
2023/10/04 01:28:18;;;;;;;9.48;4.47;;;12.20;99.90;;;11.99;100.00;101286.59;5010157;28;20546;-87
2023/10/04 01:30:47;;;;;;;13.07;4.00;;;12.20;99.90;;;12.07;100.00;101278.19;5007224;28;20038;-90
2023/10/04 01:33:18;;;;;;;11.27;4.18;;;12.30;99.90;;;12.03;100.00;101279.66;5029146;28;20619;-90
2023/10/04 01:35:51;;;;;;;13.23;3.90;;;12.30;99.90;;;12.05;100.00;101286.59;5022389;28;20830;-91
2023/10/04 01:38:17;;;;;;;9.68;3.40;;;12.20;99.90;;;12.02;100.00;101288.91;5024377;28;20037;-90
2023/10/04 01:40:47;;;;;;;9.50;3.83;;;12.30;99.90;;;12.16;100.00;101309.72;5037365;28;20050;-87
2023/10/04 01:43:16;;;;;;;9.95;4.00;;;12.30;99.90;;;12.04;100.00;101295.03;5029741;28;20026;-91
2023/10/04 01:45:59;;;;;;;10.32;3.83;;;12.40;99.90;;;12.21;100.00;101322.78;5012767;28;20057;-86
2023/10/04 01:48:32;;;;;;;8.07;3.42;;;12.40;99.90;;;11.94;100.00;101276.25;5027600;28;20033;-90
2023/10/04 01:51:03;;;;;;;13.73;4.05;;;12.40;99.90;;;12.04;100.00;101306.78;5021261;28;20102;-88
2023/10/04 01:53:29;;;;;;;8.88;3.30;;;12.40;99.90;;;12.16;100.00;101322.56;5020585;28;20060;-91
2023/10/04 01:55:55;;;;;;;8.70;3.67;;;12.40;99.90;;;12.10;100.00;101313.31;5024364;28;20037;-91
2023/10/04 01:58:23;;;;;;;10.20;3.38;;;12.30;99.90;;;12.11;100.00;101322.38;5012697;28;20029;-88
2023/10/04 02:00:53;;;;;;;10.73;3.22;;;12.30;99.90;;;12.12;100.00;101327.63;5015286;28;20188;-89
2023/10/04 02:03:22;;;;;;;7.13;3.00;;;12.30;99.90;;;12.19;100.00;101342.13;5015106;28;20053;-90
2023/10/04 02:05:57;;;;;;;9.55;3.60;;;12.30;99.90;;;12.24;100.00;101355.19;5021386;28;20030;-89
2023/10/04 02:08:24;;;;;;;9.38;3.30;;;12.40;99.90;;;12.32;100.00;101341.28;5019244;28;21000;-88
2023/10/04 02:10:54;;;;;;;10.40;3.00;;;12.50;99.90;;;12.39;100.00;101337.72;5003655;28;20030;-90
2023/10/04 02:13:21;;;;;;;7.93;3.35;;;12.60;99.90;;;12.47;100.00;101343.81;5037447;28;20093;-87
2023/10/04 02:15:52;;;;;;;10.70;3.37;;;12.70;99.90;;;12.48;100.00;101340.03;5013544;28;20032;-85
2023/10/04 02:18:19;;;;;;;10.57;3.47;;;12.70;99.90;;;12.54;100.00;101338.31;5015292;28;20042;-87
2023/10/04 02:20:47;;;;;;;11.27;3.08;;;12.70;99.90;;;12.52;100.00;101348.63;5028562;28;20098;-89
2023/10/04 02:23:16;;;;;;;10.98;3.50;;;12.80;99.90;;;12.60;100.00;101336.63;5026709;28;20049;-88
2023/10/04 02:25:42;;;;;;;8.77;3.05;;;12.80;99.90;;;12.60;100.00;101348.44;5036957;28;20061;-88
2023/10/04 02:28:23;;;;;;;9.68;3.45;;;12.80;99.90;;;12.66;100.00;101349.44;5016679;28;20061;-91
2023/10/04 02:30:49;;;;;;;10.43;3.60;;;12.90;99.90;;;12.67;100.00;101356.59;5017447;28;20034;-89
2023/10/04 02:33:16;;;;;;;10.90;3.03;;;12.90;99.90;;;12.69;100.00;101353.66;5020709;28;20065;-90
2023/10/04 02:35:46;;;;;;;10.05;3.22;;;12.90;99.90;;;12.69;100.00;101357.22;5019514;28;20026;-86
2023/10/04 02:38:36;;;;;;;9.25;3.38;;;12.90;99.90;;;12.66;100.00;101366.72;5018948;28;20037;-92
2023/10/04 02:41:06;;;;;;;9.30;2.95;;;12.90;99.90;;;12.55;100.00;101355.59;5011617;28;20096;-88
2023/10/04 02:43:32;;;;;;;8.10;2.95;;;12.80;99.90;;;12.59;100.00;101362.31;5018378;28;20033;-89
2023/10/04 02:45:59;;;;;;;8.73;3.22;;;12.80;99.90;;;12.55;100.00;101361.06;5019555;28;20405;-91
2023/10/04 02:48:25;;;;;;;9.50;2.97;;;12.80;99.90;;;12.54;100.00;101362.94;5018514;28;20037;-90
2023/10/04 02:50:54;;;;;;;12.23;3.40;;;12.80;99.90;;;12.48;100.00;101355.59;5033679;28;20104;-87
2023/10/04 02:53:25;;;;;;;10.25;3.38;;;12.70;99.90;;;12.56;100.00;101362.75;5017281;28;20493;-91
2023/10/04 02:55:54;;;;;;;13.55;3.40;;;12.70;99.90;;;12.58;100.00;101355.16;5012631;28;20022;-92
2023/10/04 02:58:22;;;;;;;9.80;3.17;;;12.80;99.90;;;12.64;100.00;101368.00;5032944;28;20029;-87
2023/10/04 03:00:50;;;;;;;9.32;3.17;;;12.80;99.90;;;12.61;100.00;101360.22;5014782;28;20065;-89
2023/10/04 03:03:25;;;;;;;12.35;3.60;;;12.80;99.90;;;12.57;100.00;101362.50;5028811;28;20034;-90
2023/10/04 03:05:58;;;;;;;7.00;3.20;;;12.90;99.90;;;12.63;100.00;101369.91;5016800;28;20064;-87
2023/10/04 03:08:24;;;;;;;10.80;3.45;;;12.90;99.90;;;12.75;100.00;101369.22;5027696;28;20033;-93
2023/10/04 03:10:50;;;;;;;9.77;3.22;;;12.90;99.90;;;12.76;100.00;101381.88;5025552;28;20038;-90
2023/10/04 03:13:22;;;;;;;13.07;3.95;;;13.00;99.90;;;12.76;100.00;101384.59;5039686;28;20041;-89
2023/10/04 03:15:52;;;;;;;12.05;3.40;;;13.00;99.90;;;12.83;100.00;101390.06;5020915;28;20030;-87
2023/10/04 03:18:18;;;;;;;11.27;3.78;;;13.00;99.90;;;12.77;100.00;101378.94;5017124;28;20041;-90
2023/10/04 03:23:34;;;;;;;11.57;3.83;;;12.90;99.90;;;12.65;100.00;101386.09;5037321;28;20129;-90
2023/10/04 03:26:06;;;;;;;9.60;3.70;;;12.90;99.90;;;12.56;100.00;101384.63;5019802;28;20033;-89
2023/10/04 03:28:33;;;;;;;11.55;3.53;;;12.80;99.90;;;12.59;100.00;101385.03;5028297;28;20429;-88
2023/10/04 03:31:02;;;;;;;10.88;4.00;;;12.70;99.90;;;12.56;100.00;101387.38;5028466;28;20523;-90
2023/10/04 03:33:31;;;;;;;11.85;4.43;;;12.70;99.90;;;12.54;100.00;101384.84;5024594;28;20033;-91
2023/10/04 03:35:58;;;;;;;11.45;3.55;;;12.70;99.90;;;12.48;100.00;101382.97;5030126;28;20045;-89
2023/10/04 03:38:33;;;;;;;10.65;3.85;;;12.60;99.90;;;12.46;100.00;101377.69;5018586;28;20121;-90
2023/10/04 03:40:59;;;;;;;11.23;4.07;;;12.60;99.90;;;12.46;100.00;101374.94;5021361;28;20042;-89
2023/10/04 03:43:25;;;;;;;12.05;4.47;;;12.60;99.90;;;12.46;100.00;101380.41;5019953;28;20505;-90
2023/10/04 03:45:51;;;;;;;14.82;5.30;;;12.60;99.90;;;12.30;100.00;101365.28;5021136;28;20072;-89
2023/10/04 03:48:21;;;;;;;10.88;4.30;;;12.60;99.90;;;12.45;100.00;101372.44;5014106;28;20053;-90
2023/10/04 03:50:53;;;;;;;9.13;3.63;;;12.60;99.90;;;12.33;100.00;101358.56;5018750;28;20113;-85
2023/10/04 03:53:20;;;;;;;10.27;3.77;;;12.60;99.90;;;12.41;100.00;101371.19;5029331;28;20049;-89
2023/10/04 03:55:47;;;;;;;8.32;3.60;;;12.60;99.90;;;12.52;100.00;101376.00;5014483;28;20052;-90
2023/10/04 03:58:19;;;;;;;15.75;4.22;;;12.60;99.90;;;12.47;100.00;101378.53;5028630;28;20029;-87
2023/10/04 04:00:46;;;;;;;7.95;3.58;;;12.60;99.90;;;12.54;100.00;101381.28;5021034;28;20448;-87
2023/10/04 04:03:12;;;;;;;11.23;3.88;;;12.70;99.90;;;12.48;100.00;101372.00;5024273;28;20104;-86
2023/10/04 04:05:44;;;;;;;9.27;3.72;;;12.70;99.90;;;12.56;100.00;101385.47;5029295;28;20034;-88
2023/10/04 04:08:13;;;;;;;9.73;3.90;;;12.70;99.90;;;12.48;100.00;101374.75;5018114;28;20065;-89
2023/10/04 04:10:40;;;;;;;7.60;3.22;;;12.70;99.90;;;12.55;100.00;101385.69;5032870;28;20090;-90
2023/10/04 04:13:07;;;;;;;12.07;4.18;;;12.80;99.90;;;12.60;100.00;101397.69;5024165;28;20052;-91
2023/10/04 04:15:36;;;;;;;11.05;3.78;;;12.80;99.90;;;12.54;100.00;101381.28;5018908;28;20041;-89
2023/10/04 04:18:13;;;;;;;13.10;3.65;;;12.80;99.90;;;12.58;100.00;101386.09;5013138;28;20042;-89
2023/10/04 04:20:41;;;;;;;9.35;3.72;;;12.80;99.90;;;12.58;100.00;101390.75;5022971;28;20077;-88
2023/10/04 04:23:15;;;;;;;13.95;4.18;;;12.80;99.90;;;12.60;100.00;101386.75;5020283;28;20037;-88
2023/10/04 04:25:45;;;;;;;9.35;3.95;;;12.80;99.90;;;12.57;100.00;101378.09;4997771;28;20110;-84
2023/10/04 04:28:12;;;;;;;7.80;3.70;;;12.80;99.90;;;12.54;100.00;101375.81;5013219;28;20371;-82
2023/10/04 04:30:38;;;;;;;8.48;3.45;;;12.70;99.90;;;12.47;100.00;101364.84;5038503;28;20097;-88
2023/10/04 04:33:07;;;;;;;10.82;3.85;;;12.70;99.90;;;12.47;100.00;101382.13;5037781;28;20045;-88
2023/10/04 04:38:17;;;;;;;14.70;3.92;;;12.70;99.90;;;12.43;100.00;101377.28;5019735;28;20049;-91
2023/10/04 04:40:46;;;;;;;11.98;4.32;;;12.60;99.90;;;12.36;100.00;101363.59;5023010;28;20084;-91
2023/10/04 04:45:58;;;;;;;8.45;3.80;;;12.60;99.90;;;12.37;100.00;101359.81;5016877;28;20140;-88
2023/10/04 04:48:35;;;;;;;15.55;4.10;;;12.60;99.90;;;12.32;100.00;101360.44;5002060;28;20037;-88
2023/10/04 04:51:12;;;;;;;13.23;4.47;;;12.60;99.90;;;12.32;100.00;101351.41;5026816;28;20037;-91
2023/10/04 04:54:04;;;;;;;9.50;4.18;;;12.60;99.90;;;12.45;100.00;101370.53;5020586;28;20052;-90
2023/10/04 04:56:31;;;;;;;12.20;4.03;;;12.60;99.90;;;12.39;100.00;101367.81;5028765;28;20044;-89
2023/10/04 04:59:07;;;;;;;10.77;4.38;;;12.60;99.90;;;12.42;100.00;101365.47;5011138;28;20037;-86
2023/10/04 05:01:34;;;;;;;15.35;4.13;;;12.50;99.90;;;12.30;100.00;101356.25;5038760;28;20163;-87
2023/10/04 05:04:05;;;;;;;13.57;4.10;;;12.50;99.90;;;12.34;100.00;101376.66;5033920;28;20038;-87
2023/10/04 05:06:32;;;;;;;10.60;4.10;;;12.50;99.90;;;12.28;100.00;101367.38;5022731;28;20052;-88
2023/10/04 05:08:57;;;;;;;10.35;4.03;;;12.50;99.90;;;12.34;100.00;101387.59;5019020;28;20037;-86
2023/10/04 05:11:24;;;;;;;14.20;4.10;;;12.50;99.90;;;12.29;100.00;101384.66;5018990;28;20455;-90
2023/10/04 05:13:51;;;;;;;13.02;4.82;;;12.40;99.90;;;12.14;100.00;101372.00;5014398;28;20048;-89
2023/10/04 05:16:17;;;;;;;13.10;4.38;;;12.40;99.90;;;12.13;100.00;101377.72;5021881;28;20469;-87
2023/10/04 05:18:43;;;;;;;16.77;4.78;;;12.30;99.90;;;11.99;100.00;101374.91;5025486;28;20443;-85
2023/10/04 05:21:10;;;;;;;14.75;4.82;;;12.20;99.90;;;11.94;100.00;101370.09;5030114;28;20056;-89
2023/10/04 05:23:36;;;;;;;12.15;4.35;;;12.10;99.90;;;11.87;100.00;101380.16;5021203;28;20064;-91
2023/10/04 05:26:03;;;;;;;16.33;4.60;;;12.10;99.90;;;11.82;100.00;101374.47;5049971;28;20049;-84
2023/10/04 05:28:29;;;;;;;11.82;4.82;;;12.00;99.90;;;11.78;100.00;101371.28;5025818;28;20065;-82
2023/10/04 05:30:55;;;;;;;12.98;5.07;;;12.00;99.90;;;11.77;100.00;101366.06;5029166;28;20029;-82
2023/10/04 05:33:22;;;;;;;14.75;5.10;;;11.90;99.90;;;11.73;100.00;101362.06;5022667;28;20481;-80
2023/10/04 05:35:55;;;;;;;16.45;5.55;;;11.90;99.90;;;11.68;100.00;101357.19;5013727;28;20370;-86
2023/10/04 05:38:22;;;;;;;13.85;6.05;;;11.90;99.90;;;11.68;100.00;101345.44;5016365;28;20033;-80
2023/10/04 05:40:49;;;;;;;10.25;5.40;;;11.90;99.90;;;11.71;100.00;101355.97;5018002;28;20168;-81
2023/10/04 05:43:17;;;;;;;11.45;5.32;;;11.90;99.90;;;11.69;100.00;101352.59;5013248;28;20038;-80
2023/10/04 05:45:44;;;;;;;;;;;11.90;99.90;;;11.65;100.00;101350.25;5015959;28;20038;-81
2023/10/04 05:48:11;;;;;;;16.08;5.70;;;11.90;99.90;;;11.75;100.00;101360.78;5013738;28;19917;-81
2023/10/04 05:50:39;;;;;;;12.98;6.22;;;11.90;99.90;;;11.68;100.00;101362.66;5022538;28;20033;-82
2023/10/04 05:53:08;;;;;;;13.60;5.85;;;11.80;99.90;;;11.66;100.00;101357.38;5022706;28;20071;-80
2023/10/04 05:55:37;;;;;;;17.58;6.80;;;11.90;99.90;;;11.72;100.00;101357.63;5027895;28;20064;-81
2023/10/04 05:58:07;;;;;;;15.50;6.13;;;11.90;99.90;;;11.72;100.00;101361.19;5026469;28;20030;-83
2023/10/04 06:00:40;;;;;;;13.73;6.00;;;11.80;99.90;;;11.74;100.00;101361.00;5023850;28;20115;-79
2023/10/04 06:03:08;;;;;;;16.15;7.07;;;11.90;99.90;;;11.66;100.00;101368.31;5029024;28;20037;-80
2023/10/04 06:05:35;;;;;;;;;;;11.80;99.90;;;11.68;100.00;101362.66;5027682;28;20152;-81
2023/10/04 06:08:06;;;;;;;17.35;6.70;;;11.80;99.90;;;11.65;100.00;101365.81;5019619;28;19939;-81
2023/10/04 06:10:33;;;;;;;18.52;8.20;;;11.80;99.90;;;11.66;100.00;101362.03;5012758;28;20552;-81
2023/10/04 06:12:59;;;;;;;15.13;7.30;;;11.80;99.90;;;11.68;100.00;101370.88;5013168;28;20041;-81
2023/10/04 06:15:25;;;;;;;13.10;7.68;;;11.90;99.90;;;11.65;100.00;101374.84;5019852;28;20048;-80
2023/10/04 06:17:52;;;;;;;15.77;7.18;;;11.80;99.90;;;11.68;100.00;101375.50;5025147;28;20062;-85
2023/10/04 06:20:33;;;;;;;14.13;8.40;;;11.90;99.90;;;11.66;100.00;101373.78;5017751;28;20167;-83
2023/10/04 06:23:05;;;;;;;14.23;7.90;;;11.90;99.90;;;11.65;100.00;101374.84;5013777;28;20450;-83
2023/10/04 06:25:35;;;;;;;11.48;7.53;;;11.90;99.90;;;11.62;100.00;101368.97;5012603;28;20470;-84
2023/10/04 06:28:05;;;;;;;15.18;8.40;;;11.80;99.90;;;11.73;100.00;101370.25;5020081;28;20435;-81
2023/10/04 06:30:36;;;;;;;16.15;8.85;;;11.90;99.90;;;11.76;100.00;101375.31;5017870;28;20105;-80
2023/10/04 06:33:05;;;;;;;19.08;8.50;;;12.00;99.90;;;11.81;100.00;101386.44;5025547;28;20079;-81
2023/10/04 06:35:32;;;;;;;14.98;8.00;;;12.00;99.90;;;11.81;100.00;101378.25;5017526;28;20077;-82
2023/10/04 06:38:06;;;;;;;16.02;7.45;;;12.00;99.90;;;11.94;100.00;101393.84;5015003;28;20490;-83
2023/10/04 06:40:32;;;;;;;12.15;7.60;;;12.10;99.90;;;12.03;100.00;101391.78;5018327;28;20531;-83
2023/10/04 06:43:01;;;;;;;12.80;7.18;;;12.20;99.90;;;12.09;100.00;101407.34;5018388;28;20033;-82
2023/10/04 06:45:27;;;;;;;13.02;7.47;;;12.30;99.90;;;12.18;100.00;101414.28;5014904;28;20042;-83
2023/10/04 06:47:56;;;;;;;16.33;7.47;;;12.30;99.90;;;12.25;100.00;101421.69;5020411;28;20034;-84
2023/10/04 06:50:29;;;;;;;15.27;7.32;;;12.40;99.90;;;12.38;100.00;101427.16;5014576;28;20073;-82
2023/10/04 06:52:57;;;;;;;16.77;7.32;;;12.50;99.90;;;12.43;100.00;101449.25;5017582;28;20516;-81
2023/10/04 06:55:24;;;;;;;12.88;7.60;;;12.60;99.90;;;12.61;100.00;101456.00;5017181;28;20065;-83
2023/10/04 06:57:49;;;;;;;13.57;7.05;;;12.70;99.90;;;12.66;100.00;101456.22;5013501;28;20088;-82
2023/10/04 07:00:18;;;;;;;14.70;6.60;;;12.80;99.90;;;12.71;100.00;101464.63;5015987;28;20104;-82
2023/10/04 07:02:58;;;;;;;13.48;6.65;;;12.90;99.90;;;12.87;100.00;101481.69;5012172;28;20165;-83
2023/10/04 07:05:29;;;;;;;12.93;6.63;;;13.00;99.90;;;12.92;100.00;101481.88;5016940;28;20044;-82
2023/10/04 07:07:59;;;;;;;13.10;6.28;;;13.10;99.90;;;13.14;100.00;101489.88;5011915;28;20548;-82
2023/10/04 07:10:29;;;;;;;13.85;5.55;;;13.20;99.90;;;13.20;100.00;101510.94;5013003;28;20030;-82
2023/10/04 07:12:58;;;;;;;16.75;5.93;;;13.30;99.90;;;13.17;100.00;101514.09;5026535;28;20092;-81
2023/10/04 07:15:36;;;;;;;12.60;5.20;;;13.40;99.90;;;13.21;100.00;101516.22;5025315;28;20044;-83
2023/10/04 07:18:06;;;;;;;15.30;6.22;;;13.40;99.90;;;13.37;100.00;101528.63;5014222;28;20048;-84
2023/10/04 07:20:33;;;;;;;12.65;5.18;;;13.60;99.90;;;13.41;100.00;101534.53;5017708;28;20041;-81
2023/10/04 07:23:03;;;;;;;12.05;5.07;;;13.60;99.90;;;13.51;100.00;101520.38;5013419;28;20081;-83
2023/10/04 07:25:35;;;;;;;12.88;5.55;;;13.70;99.90;;;13.63;100.00;101543.34;5028008;28;20044;-82
2023/10/04 07:28:04;;;;;;;11.65;4.88;;;13.80;99.90;;;13.59;100.00;101564.03;5027604;28;20057;-82
2023/10/04 07:30:35;;;;;;;11.38;4.30;;;13.90;99.90;;;13.73;100.00;101567.56;5026798;28;20049;-82
2023/10/04 07:33:02;;;;;;;16.00;3.97;;;13.90;99.90;;;13.73;100.00;101570.31;5031276;28;20026;-83
2023/10/04 07:35:28;;;;;;;10.73;4.85;;;14.10;99.90;;;13.94;100.00;101582.91;5027409;28;20044;-83
2023/10/04 07:37:57;;;;;;;13.25;4.20;;;14.10;99.90;;;14.00;100.00;101608.63;5027734;28;20037;-83
2023/10/04 07:40:24;;;;;;;11.30;4.38;;;14.20;99.90;;;14.23;100.00;101613.59;5031404;28;20037;-82
2023/10/04 07:42:53;;;;;;;12.05;3.60;;;14.30;99.90;;;14.07;100.00;101601.22;5020797;28;20025;-82
2023/10/04 07:45:22;;;;;;;8.75;3.70;;;14.40;99.90;;;14.21;100.00;101590.19;5026610;28;20091;-86
2023/10/04 07:47:49;;;;;;;10.40;3.88;;;14.40;99.90;;;14.13;100.00;101585.78;5029405;28;20476;-85
2023/10/04 07:50:22;;;;;;;10.07;3.67;;;14.50;99.90;;;14.42;100.00;101610.97;5024995;28;20105;-85
2023/10/04 07:52:52;;;;;;;12.90;3.30;;;14.60;99.90;;;14.34;100.00;101600.25;5028012;28;20077;-85
2023/10/04 07:55:18;;;;;;;10.55;3.50;;;14.70;99.90;;;14.49;100.00;101608.19;5024821;28;20133;-84
2023/10/04 07:57:48;;;;;;;12.40;3.90;;;14.70;99.90;;;14.67;100.00;101618.44;5036656;28;20103;-82
2023/10/04 08:00:16;;;;;;;15.23;3.70;;;14.80;99.90;;;14.82;100.00;101623.66;5024229;28;20048;-84
2023/10/04 08:02:50;;;;;;;8.90;3.58;;;15.00;99.90;;;15.01;100.00;101630.06;5033742;28;20046;-83
2023/10/04 08:05:26;;;;;;;14.95;3.67;;;15.20;99.90;;;15.03;100.00;101621.63;5036458;28;20041;-84
2023/10/04 08:07:54;;;;;;;8.95;3.70;;;15.30;99.90;;;15.22;100.00;101630.75;5019503;28;20115;-84
2023/10/04 08:10:26;;;;;;;10.68;3.60;;;15.40;99.90;;;15.29;100.00;101636.22;5026947;28;20560;-84
2023/10/04 08:12:54;;;;;;;11.10;3.38;;;15.50;99.90;;;15.28;100.00;101618.88;5021914;28;20488;-83
2023/10/04 08:15:25;;;;;;;9.23;3.65;;;15.60;99.90;;;15.26;100.00;101626.50;5024926;28;20038;-87
2023/10/04 08:17:52;;;;;;;9.73;3.35;;;15.60;99.90;;;15.60;100.00;101626.19;5025291;28;20041;-82
2023/10/04 08:20:20;;;;;;;9.00;3.25;;;15.70;99.90;;;15.34;100.00;101617.13;5023040;28;20044;-81
2023/10/04 08:22:47;;;;;;;8.95;3.40;;;15.50;99.90;;;15.33;100.00;101632.78;5025736;28;20048;-83
2023/10/04 08:25:16;;;;;;;13.05;4.07;;;15.50;99.90;;;15.49;100.00;101625.03;5029154;28;20067;-83
2023/10/04 08:27:43;;;;;;;11.18;3.63;;;15.60;99.90;;;15.35;100.00;101638.06;5016528;28;20089;-81
2023/10/04 08:30:12;;;;;;;11.90;3.70;;;15.60;99.90;;;15.41;100.00;101639.06;5006949;28;20089;-81
2023/10/04 08:32:44;;;;;;;13.25;3.55;;;15.70;99.90;;;15.53;100.00;101643.63;5019869;28;20037;-81
2023/10/04 08:35:21;;;;;;;10.43;3.53;;;15.80;99.90;;;15.55;100.00;101640.63;5021793;28;20038;-83
2023/10/04 08:37:55;;;;;;;9.73;3.80;;;15.90;99.90;;;15.84;100.00;101660.22;5023627;28;20066;-83
2023/10/04 08:40:27;;;;;;;10.65;3.38;;;16.00;99.90;;;15.64;100.00;101643.94;5015296;28;20430;-82
2023/10/04 08:42:53;;;;;;;11.75;3.42;;;16.00;99.90;;;16.08;100.00;101654.91;5027471;28;20026;-83
2023/10/04 08:45:20;;;;;;;10.20;3.88;;;16.10;99.90;;;15.90;100.00;101644.75;5031181;28;20037;-83
2023/10/04 08:47:51;;;;;;;10.27;3.50;;;16.20;99.90;;;16.21;100.00;101653.91;5036054;28;20044;-83
2023/10/04 08:50:39;;;;;;;8.63;3.90;;;16.30;99.90;;;15.98;100.00;101644.44;5027442;28;20321;-83
2023/10/04 08:53:57;;;;;;;8.35;3.25;;;16.20;99.90;;;16.18;100.00;101660.75;5015219;28;20042;-82
2023/10/04 08:56:27;;;;;;;8.73;3.50;;;16.20;99.90;;;16.18;100.00;101651.63;5021123;28;20033;-82
2023/10/04 08:58:57;;;;;;;12.02;3.88;;;16.30;99.90;;;16.32;100.00;101650.41;5026151;28;20202;-82
2023/10/04 09:01:24;;;;;;;10.45;3.08;;;16.40;99.90;;;16.36;100.00;101665.41;5029858;28;20080;-82
2023/10/04 09:03:52;;;;;;;;;;;16.50;99.90;;;16.43;100.00;101653.44;5013983;28;20038;-83
2023/10/04 09:06:18;;;;;;;10.75;3.92;;;16.60;99.90;;;16.47;100.00;101649.16;5020767;28;19924;-83
2023/10/04 09:08:44;;;;;;;9.80;4.00;;;16.60;99.90;;;16.36;100.00;101648.03;5014985;28;20409;-85
2023/10/04 09:11:19;;;;;;;10.93;3.80;;;16.60;99.90;;;16.41;100.00;101658.34;5014320;28;20046;-84
2023/10/04 09:13:47;;;;;;;14.07;3.88;;;16.60;99.90;;;16.46;100.00;101655.72;5014572;28;20034;-84
2023/10/04 09:16:28;;;;;;;11.30;4.45;;;16.70;99.90;;;16.64;100.00;101652.09;5019292;28;20096;-85
2023/10/04 09:19:17;;;;;;;13.95;3.85;;;16.80;99.90;;;16.54;100.00;101649.91;5018049;28;20552;-78
2023/10/04 09:21:45;;;;;;;11.32;3.75;;;16.80;99.90;;;16.78;100.00;101650.00;5019596;28;20048;-82
2023/10/04 09:24:14;;;;;;;11.27;4.18;;;16.90;99.90;;;17.09;100.00;101643.41;5018406;28;20041;-81
2023/10/04 09:26:49;;;;;;;10.05;3.45;;;17.10;99.90;;;17.26;100.00;101662.03;5029642;28;20596;-79
2023/10/04 09:29:15;;;;;;;10.55;3.55;;;17.30;99.90;;;17.29;100.00;101660.69;5014133;28;20034;-79
2023/10/04 09:31:50;;;;;;;9.70;3.55;;;17.40;99.90;;;17.70;100.00;101653.44;5014063;28;20511;-79
2023/10/04 09:34:17;;;;;;;11.65;3.63;;;17.70;99.90;;;17.84;100.00;101645.72;5013527;28;20080;-79
2023/10/04 09:36:43;;;;;;;8.80;3.73;;;18.00;99.90;;;17.97;100.00;101662.03;5018061;28;20492;-79
2023/10/04 09:39:15;;;;;;;10.10;3.60;;;18.10;99.90;;;17.84;100.00;101687.13;5014823;28;20295;-81
2023/10/04 09:41:43;;;;;;;13.43;3.67;;;18.10;99.90;;;17.98;100.00;101660.94;5014314;28;20025;-80
2023/10/04 09:44:26;;;;;;;12.95;3.88;;;18.20;99.90;;;17.60;100.00;101669.72;5034386;28;20045;-80
2023/10/04 09:47:03;;;;;;;12.38;3.75;;;18.20;99.90;;;17.06;100.00;101665.09;5012411;28;20125;-81
2023/10/04 09:49:32;;;;;;;13.00;4.10;;;17.50;99.90;;;16.78;100.00;101672.03;5034384;28;20135;-80
2023/10/04 09:52:06;;;;;;;9.32;3.88;;;17.10;99.90;;;16.87;100.00;101683.56;5016228;28;20041;-78
2023/10/04 09:54:33;;;;;;;10.57;3.70;;;17.00;99.90;;;17.24;100.00;101689.00;5019345;28;20046;-79
2023/10/04 09:57:12;;;;;;;9.95;3.88;;;17.30;99.90;;;16.96;100.00;101683.00;5028776;28;20050;-82
2023/10/04 09:59:38;;;;;;;13.23;3.85;;;17.30;99.90;;;16.87;100.00;101695.44;5017158;28;20254;-81
2023/10/04 10:02:09;;;;;;;9.20;3.95;;;17.10;99.90;;;16.63;100.00;101688.97;5012815;28;20041;-79
2023/10/04 10:04:44;;;;;;;10.18;3.80;;;16.80;99.90;;;16.54;100.00;101691.22;5035153;28;20124;-79
2023/10/04 10:07:21;;;;;;;8.38;3.47;;;16.80;99.90;;;16.40;100.00;101701.56;5015920;28;20087;-80
2023/10/04 10:09:57;;;;;;;8.70;3.70;;;16.70;99.90;;;16.78;100.00;101714.22;5028399;28;20084;-80
2023/10/04 10:12:23;;;;;;;11.68;3.55;;;16.80;99.90;;;17.26;100.00;101700.63;5016776;28;20486;-80
2023/10/04 10:14:50;;;;;;;8.80;3.10;;;17.10;99.90;;;17.17;100.00;101704.78;5017624;28;20062;-79
2023/10/04 10:17:18;;;;;;;12.43;3.30;;;17.20;99.90;;;17.61;100.00;101696.22;5016459;28;20034;-80
2023/10/04 10:19:46;;;;;;;6.68;2.72;;;;;;;18.93;100.00;101708.75;5012815;28;20042;-83
2023/10/04 10:22:19;;;;;;;11.02;2.92;;;17.30;99.90;;;18.20;100.00;101692.66;5018873;28;20034;-82